createdAt,value
2018-01-22T00:01:21.623Z,17.17
2018-01-22T00:03:49.686Z,18.00
2018-01-22T00:06:17.774Z,17.33
2018-01-22T00:08:45.834Z,15.43
2018-01-22T00:11:13.917Z,16.05
2018-01-22T00:13:41.973Z,16.02
2018-01-22T00:16:10.090Z,15.60
2018-01-22T00:18:38.164Z,16.27
2018-01-22T00:21:06.258Z,16.17
2018-01-22T00:23:35.254Z,12.45
2018-01-22T00:26:03.326Z,14.95
2018-01-22T00:28:31.404Z,15.27
2018-01-22T00:30:59.465Z,14.65
2018-01-22T00:33:27.549Z,12.98
2018-01-22T00:35:55.617Z,15.20
2018-01-22T00:38:23.856Z,16.40
2018-01-22T00:40:51.931Z,15.77
2018-01-22T00:43:20.002Z,15.40
2018-01-22T00:45:48.074Z,15.55
2018-01-22T00:48:16.154Z,16.42
2018-01-22T00:50:44.226Z,14.48
2018-01-22T00:53:12.295Z,14.27
2018-01-22T00:55:40.366Z,14.18
2018-01-22T00:58:08.446Z,13.00
2018-01-22T01:00:36.533Z,12.10
2018-01-22T01:03:04.610Z,11.50
2018-01-22T01:05:32.685Z,14.25
2018-01-22T01:08:00.763Z,12.37
2018-01-22T01:10:28.848Z,13.62
2018-01-22T01:12:57.681Z,13.15
2018-01-22T01:15:25.775Z,13.20
2018-01-22T01:17:53.843Z,14.18
2018-01-22T01:20:21.923Z,12.75
2018-01-22T01:22:49.994Z,12.25
2018-01-22T01:25:18.068Z,13.02
2018-01-22T01:27:46.141Z,13.45
2018-01-22T01:30:14.218Z,12.60
2018-01-22T01:32:43.087Z,12.60
2018-01-22T01:35:11.214Z,13.18
2018-01-22T01:37:39.282Z,13.05
2018-01-22T01:40:07.362Z,13.50
2018-01-22T01:42:35.426Z,12.90
2018-01-22T01:45:03.502Z,12.30
2018-01-22T01:47:31.580Z,15.30
2018-01-22T01:49:59.663Z,16.83
2018-01-22T01:52:27.833Z,13.95
2018-01-22T01:54:55.922Z,14.55
2018-01-22T01:57:23.991Z,15.70
2018-01-22T01:59:52.080Z,15.68
2018-01-22T02:02:20.154Z,15.30
2018-01-22T02:04:48.474Z,14.60
2018-01-22T02:07:16.565Z,11.70
2018-01-22T02:09:44.626Z,15.23
2018-01-22T02:12:12.775Z,13.88
2018-01-22T02:14:40.870Z,14.30
2018-01-22T02:17:08.937Z,14.50
2018-01-22T02:19:37.014Z,14.45
2018-01-22T02:22:05.094Z,16.20
2018-01-22T02:24:33.156Z,16.87
2018-01-22T02:27:01.232Z,15.38
2018-01-22T02:29:29.307Z,13.40
2018-01-22T02:31:57.418Z,13.60
2018-01-22T02:34:26.288Z,13.10
2018-01-22T02:36:54.380Z,13.25
2018-01-22T02:39:22.466Z,13.52
2018-01-22T02:41:50.546Z,13.40
2018-01-22T02:44:18.611Z,16.12
2018-01-22T02:46:46.680Z,12.60
2018-01-22T02:49:14.755Z,11.77
2018-01-22T02:51:42.837Z,14.80
2018-01-22T02:54:10.910Z,14.00
2018-01-22T02:56:38.995Z,15.18
2018-01-22T02:59:07.062Z,14.00
2018-01-22T03:01:35.132Z,16.20
2018-01-22T03:04:03.495Z,16.35
2018-01-22T03:06:31.610Z,18.75
2018-01-22T03:08:59.688Z,16.60
2018-01-22T03:11:27.745Z,16.00
2018-01-22T03:13:55.814Z,17.83
2018-01-22T03:16:24.803Z,17.58
2018-01-22T03:18:52.875Z,16.37
2018-01-22T03:21:20.947Z,13.73
2018-01-22T03:23:49.017Z,15.88
2018-01-22T03:26:17.077Z,15.93
2018-01-22T03:28:45.155Z,16.90
2018-01-22T03:31:13.236Z,13.73
2018-01-22T03:33:41.311Z,16.70
2018-01-22T03:36:09.375Z,14.80
2018-01-22T03:38:37.449Z,15.50
2018-01-22T03:41:05.527Z,16.75
2018-01-22T03:43:33.590Z,14.85
2018-01-22T03:46:01.665Z,14.35
2018-01-22T03:48:29.746Z,16.62
2018-01-22T03:50:57.825Z,15.55
2018-01-22T03:53:26.649Z,17.23
2018-01-22T03:55:54.726Z,15.00
2018-01-22T03:58:22.785Z,16.60
2018-01-22T04:00:50.864Z,17.05
2018-01-22T04:03:18.926Z,15.05
2018-01-22T04:05:46.990Z,18.15
2018-01-22T04:08:15.062Z,17.73
2018-01-22T04:10:43.178Z,17.12
2018-01-22T04:13:11.259Z,14.87
2018-01-22T04:15:39.349Z,17.48
2018-01-22T04:18:08.222Z,17.48
2018-01-22T04:20:36.306Z,17.77
2018-01-22T04:23:05.142Z,19.80
2018-01-22T04:25:33.206Z,17.37
2018-01-22T04:28:01.273Z,18.15
2018-01-22T04:30:30.115Z,19.48
2018-01-22T04:32:58.196Z,17.17
2018-01-22T04:35:27.029Z,16.37
2018-01-22T04:37:55.115Z,18.50
2018-01-22T04:40:23.180Z,18.40
2018-01-22T04:42:53.206Z,17.42
2018-01-22T04:45:22.179Z,16.67
2018-01-22T04:47:50.262Z,16.60
2018-01-22T04:50:18.339Z,18.08
2018-01-22T04:52:46.405Z,18.62
2018-01-22T04:55:14.482Z,18.17
2018-01-22T04:57:42.553Z,17.90
2018-01-22T05:00:10.630Z,17.95
2018-01-22T05:02:38.702Z,15.55
2018-01-22T05:05:06.778Z,18.02
2018-01-22T05:07:34.853Z,18.85
2018-01-22T05:10:02.920Z,17.75
2018-01-22T05:12:30.999Z,19.02
2018-01-22T05:14:59.072Z,17.62
2018-01-22T05:17:27.141Z,17.23
2018-01-22T05:19:55.214Z,18.95
2018-01-22T05:22:23.294Z,17.92
2018-01-22T05:24:52.147Z,18.35
2018-01-22T05:27:20.222Z,17.20
2018-01-22T05:29:48.291Z,18.48
2018-01-22T05:32:16.369Z,18.65
2018-01-22T05:34:44.439Z,16.05
2018-01-22T05:37:12.510Z,15.88
2018-01-22T05:39:40.586Z,16.10
2018-01-22T05:42:08.657Z,17.35
2018-01-22T05:44:36.743Z,17.70
2018-01-22T05:47:05.574Z,18.12
2018-01-22T05:49:33.646Z,13.98
2018-01-22T05:52:01.709Z,16.37
2018-01-22T05:54:29.779Z,15.75
2018-01-22T05:56:58.790Z,16.95
2018-01-22T05:59:26.869Z,15.63
2018-01-22T06:01:54.937Z,15.48
2018-01-22T06:04:22.997Z,17.12
2018-01-22T06:06:51.079Z,15.82
2018-01-22T06:09:19.155Z,15.30
2018-01-22T06:11:47.216Z,14.15
2018-01-22T06:14:15.290Z,17.80
2018-01-22T06:16:43.366Z,16.95
2018-01-22T06:19:11.443Z,15.30
2018-01-22T06:21:39.509Z,15.02
2018-01-22T06:24:07.582Z,15.63
2018-01-22T06:26:35.657Z,16.25
2018-01-22T06:29:03.734Z,16.27
2018-01-22T06:31:31.805Z,16.20
2018-01-22T06:33:59.890Z,15.80
2018-01-22T06:36:27.956Z,15.88
2018-01-22T06:38:56.047Z,14.65
2018-01-22T06:41:24.889Z,18.62
2018-01-22T06:43:52.950Z,17.00
2018-01-22T06:46:21.050Z,15.98
2018-01-22T06:48:49.187Z,15.60
2018-01-22T06:51:17.246Z,16.50
2018-01-22T06:53:45.322Z,15.55
2018-01-22T06:56:13.385Z,14.23
2018-01-22T06:58:41.455Z,15.55
2018-01-22T07:01:09.514Z,15.25
2018-01-22T07:03:37.591Z,14.95
2018-01-22T07:06:05.663Z,15.68
2018-01-22T07:08:33.727Z,14.50
2018-01-22T07:11:01.799Z,15.55
2018-01-22T07:13:29.869Z,12.65
2018-01-22T07:15:57.948Z,14.32
2018-01-22T07:18:26.014Z,13.32
2018-01-22T07:20:54.097Z,17.15
2018-01-22T07:23:22.202Z,15.57
2018-01-22T07:25:50.266Z,14.02
2018-01-22T07:28:18.377Z,12.70
2018-01-22T07:30:47.212Z,13.48
2018-01-22T07:33:15.269Z,12.18
2018-01-22T07:35:43.345Z,13.60
2018-01-22T07:38:11.442Z,13.65
2018-01-22T07:40:39.527Z,15.02
2018-01-22T07:43:07.598Z,13.02
2018-01-22T07:45:35.665Z,12.13
2018-01-22T07:48:03.729Z,12.95
2018-01-22T07:50:31.802Z,12.98
2018-01-22T07:52:59.880Z,12.88
2018-01-22T07:55:27.946Z,14.02
2018-01-22T07:57:56.024Z,15.30
2018-01-22T08:00:24.095Z,13.75
2018-01-22T08:02:52.930Z,13.27
2018-01-22T08:05:21.018Z,14.48
2018-01-22T08:07:49.101Z,14.77
2018-01-22T08:10:17.179Z,12.85
2018-01-22T08:12:45.253Z,13.10
2018-01-22T08:15:13.327Z,12.85
2018-01-22T08:17:42.142Z,14.13
2018-01-22T08:20:10.972Z,13.70
2018-01-22T08:22:39.042Z,13.52
2018-01-22T08:25:07.109Z,12.95
2018-01-22T08:27:35.177Z,12.35
2018-01-22T08:30:03.283Z,13.10
2018-01-22T08:32:31.355Z,12.40
2018-01-22T08:34:59.431Z,14.57
2018-01-22T08:37:27.535Z,12.60
2018-01-22T08:39:55.594Z,13.95
2018-01-22T08:42:24.569Z,12.95
2018-01-22T08:44:53.409Z,13.48
2018-01-22T08:47:21.481Z,13.23
2018-01-22T08:49:49.543Z,12.90
2018-01-22T08:52:17.620Z,12.57
2018-01-22T08:54:45.697Z,11.55
2018-01-22T08:57:13.790Z,10.88
2018-01-22T08:59:41.863Z,12.85
2018-01-22T09:02:09.927Z,14.45
2018-01-22T09:04:38.006Z,13.43
2018-01-22T09:07:06.079Z,14.48
2018-01-22T09:09:34.167Z,12.85
2018-01-22T09:12:03.002Z,14.57
2018-01-22T09:14:31.073Z,13.57
2018-01-22T09:16:59.151Z,14.48
2018-01-22T09:19:27.228Z,13.60
2018-01-22T09:21:55.289Z,14.00
2018-01-22T09:24:23.356Z,14.95
2018-01-22T09:26:51.434Z,14.73
2018-01-22T09:29:19.519Z,14.32
2018-01-22T09:31:47.594Z,13.48
2018-01-22T09:34:15.662Z,15.32
2018-01-22T09:36:43.751Z,14.55
2018-01-22T09:39:11.819Z,13.52
2018-01-22T09:41:39.937Z,13.82
2018-01-22T09:44:07.973Z,13.95
2018-01-22T09:46:36.815Z,15.07
2018-01-22T09:49:04.901Z,13.60
2018-01-22T09:51:32.983Z,14.77
2018-01-22T09:54:01.044Z,13.15
2018-01-22T09:56:29.120Z,13.77
2018-01-22T09:58:57.192Z,12.23
2018-01-22T10:01:25.270Z,13.25
2018-01-22T10:03:53.345Z,13.40
2018-01-22T10:06:21.430Z,14.20
2018-01-22T10:08:50.282Z,15.00
2018-01-22T10:11:18.337Z,15.00
2018-01-22T10:13:46.421Z,13.73
2018-01-22T10:16:14.477Z,12.27
2018-01-22T10:18:42.566Z,13.25
2018-01-22T10:21:10.635Z,14.38
2018-01-22T10:23:38.724Z,13.07
2018-01-22T10:26:06.777Z,13.90
2018-01-22T10:28:34.858Z,13.18
2018-01-22T10:31:02.935Z,14.65
2018-01-22T10:33:31.402Z,12.00
2018-01-22T10:35:59.479Z,13.62
2018-01-22T10:38:27.548Z,12.88
2018-01-22T10:40:55.618Z,12.77
2018-01-22T10:43:23.726Z,12.60
2018-01-22T10:45:53.466Z,13.48
2018-01-22T10:48:21.535Z,13.50
2018-01-22T10:50:49.607Z,16.08
2018-01-22T10:53:18.093Z,13.00
2018-01-22T10:55:46.163Z,11.73
2018-01-22T10:58:14.236Z,13.38
2018-01-22T11:00:42.297Z,12.93
2018-01-22T11:03:10.366Z,11.85
2018-01-22T11:05:38.439Z,11.93
2018-01-22T11:08:06.505Z,13.65
2018-01-22T11:10:34.578Z,12.45
2018-01-22T11:13:02.647Z,13.65
2018-01-22T11:18:31.850Z,12.68
2018-01-22T11:20:59.939Z,12.95
2018-01-22T11:23:28.015Z,13.18
2018-01-22T11:25:56.080Z,10.88
2018-01-22T11:28:24.146Z,13.40
2018-01-22T11:30:52.253Z,12.30
2018-01-22T11:33:20.319Z,13.25
2018-01-22T11:35:48.416Z,12.13
2018-01-22T11:38:16.490Z,11.02
2018-01-22T11:40:45.326Z,12.00
2018-01-22T11:43:13.396Z,10.77
2018-01-22T11:45:41.475Z,13.88
2018-01-22T11:48:09.537Z,12.27
2018-01-22T11:50:37.621Z,12.65
2018-01-22T11:53:05.681Z,12.32
2018-01-22T11:55:33.754Z,12.02
2018-01-22T11:58:01.829Z,11.43
2018-01-22T12:00:29.885Z,12.10
2018-01-22T12:02:57.962Z,11.50
2018-01-22T12:05:26.038Z,12.88
2018-01-22T12:07:54.115Z,12.95
2018-01-22T12:10:22.186Z,11.98
2018-01-22T12:12:50.253Z,11.10
2018-01-22T12:15:18.330Z,12.07
2018-01-22T12:17:46.400Z,12.00
2018-01-22T12:20:14.473Z,12.43
2018-01-22T12:22:42.542Z,11.90
2018-01-22T12:25:10.618Z,12.02
2018-01-22T12:27:38.686Z,12.30
2018-01-22T12:30:06.763Z,13.65
2018-01-22T12:32:34.831Z,11.68
2018-01-22T12:35:02.907Z,14.10
2018-01-22T12:37:30.979Z,12.50
2018-01-22T12:39:59.049Z,13.50
2018-01-22T12:42:27.130Z,12.98
2018-01-22T12:44:55.210Z,13.60
2018-01-22T12:47:24.043Z,12.30
2018-01-22T12:49:52.110Z,13.35
2018-01-22T12:52:20.178Z,13.38
2018-01-22T12:54:48.260Z,12.95
2018-01-22T12:57:16.322Z,13.15
2018-01-22T12:59:44.396Z,12.35
2018-01-22T13:02:12.453Z,10.80
2018-01-22T13:04:40.525Z,11.10
2018-01-22T13:07:08.598Z,11.40
2018-01-22T13:09:36.670Z,10.30
2018-01-22T13:12:04.749Z,11.38
2018-01-22T13:14:32.822Z,11.18
2018-01-22T13:17:00.898Z,10.77
2018-01-22T13:19:28.969Z,11.18
2018-01-22T13:21:57.047Z,10.80
2018-01-22T13:24:25.131Z,11.20
2018-01-22T13:26:53.203Z,10.07
2018-01-22T13:29:21.282Z,10.70
2018-01-22T13:31:49.358Z,12.65
2018-01-22T13:34:17.423Z,9.70
2018-01-22T13:36:45.500Z,58.53
2018-01-22T13:39:13.574Z,18.12
2018-01-22T13:41:41.641Z,15.90
2018-01-22T13:44:09.706Z,9.25
2018-01-22T13:46:37.824Z,10.13
2018-01-22T13:49:06.634Z,10.52
2018-01-22T13:51:34.722Z,12.00
2018-01-22T13:54:02.781Z,11.65
2018-01-22T13:56:30.857Z,11.88
2018-01-22T13:58:58.931Z,10.32
2018-01-22T14:01:27.016Z,10.48
2018-01-22T14:03:55.082Z,9.57
2018-01-22T14:06:23.149Z,9.88
2018-01-22T14:08:51.229Z,9.27
2018-01-22T14:11:19.290Z,9.38
2018-01-22T14:13:47.365Z,9.07
2018-01-22T14:16:15.430Z,10.95
2018-01-22T14:18:43.508Z,9.52
2018-01-22T14:21:11.561Z,9.88
2018-01-22T14:23:39.644Z,17.65
2018-01-22T14:26:07.710Z,11.50
2018-01-22T14:28:35.784Z,14.90
2018-01-22T14:31:03.858Z,10.13
2018-01-22T14:33:31.925Z,9.50
2018-01-22T14:35:59.999Z,9.50
2018-01-22T14:38:28.068Z,9.20
2018-01-22T14:40:56.172Z,9.68
2018-01-22T14:43:25.009Z,12.27
2018-01-22T14:45:53.069Z,9.93
2018-01-22T14:48:21.156Z,10.63
2018-01-22T14:50:49.230Z,8.85
2018-01-22T14:53:17.300Z,8.68
2018-01-22T14:55:45.366Z,10.05
2018-01-22T14:58:13.443Z,9.73
2018-01-22T15:00:41.518Z,8.68
2018-01-22T15:03:09.601Z,10.55
2018-01-22T15:05:37.718Z,9.13
2018-01-22T15:08:08.770Z,9.40
2018-01-22T15:10:36.837Z,9.18
2018-01-22T15:13:04.889Z,8.82
2018-01-22T15:15:32.956Z,7.70
2018-01-22T15:18:01.027Z,10.05
2018-01-22T15:20:29.109Z,9.10
2018-01-22T15:22:57.174Z,9.20
2018-01-22T15:25:25.283Z,8.82
2018-01-22T15:27:53.337Z,8.32
2018-01-22T15:30:21.442Z,9.23
2018-01-22T15:32:49.502Z,9.68
2018-01-22T15:35:17.583Z,10.23
2018-01-22T15:37:45.652Z,9.95
2018-01-22T15:40:13.709Z,9.93
2018-01-22T15:42:41.778Z,7.70
2018-01-22T15:45:09.840Z,8.50
2018-01-22T15:47:37.911Z,8.52
2018-01-22T15:50:05.974Z,9.80
2018-01-22T15:52:34.451Z,9.15
2018-01-22T15:55:02.518Z,9.00
2018-01-22T15:57:30.591Z,8.77
2018-01-22T15:59:58.653Z,8.00
2018-01-22T16:02:26.736Z,9.30
2018-01-22T16:04:54.799Z,9.50
2018-01-22T16:07:22.867Z,8.50
2018-01-22T16:09:50.940Z,7.68
2018-01-22T16:12:19.037Z,8.63
2018-01-22T16:14:47.085Z,7.97
2018-01-22T16:17:15.163Z,8.75
2018-01-22T16:19:43.252Z,8.18
2018-01-22T16:22:11.311Z,8.48
2018-01-22T16:24:39.384Z,8.90
2018-01-22T16:27:07.445Z,8.70
2018-01-22T16:29:35.521Z,10.02
2018-01-22T16:32:03.626Z,9.32
2018-01-22T16:34:31.692Z,9.50
2018-01-22T16:36:59.783Z,10.30
2018-01-22T16:39:28.618Z,10.98
2018-01-22T16:41:56.691Z,10.15
2018-01-22T16:44:24.771Z,10.90
2018-01-22T16:46:58.458Z,10.20
2018-01-22T16:49:26.543Z,9.85
2018-01-22T16:51:54.609Z,10.50
2018-01-22T16:54:22.689Z,9.10
2018-01-22T16:56:50.757Z,11.30
2018-01-22T16:59:18.822Z,13.18
2018-01-22T17:01:46.910Z,12.15
2018-01-22T17:04:14.988Z,12.35
2018-01-22T17:06:43.133Z,15.05
2018-01-22T17:09:11.192Z,14.35
2018-01-22T17:11:39.306Z,12.57
2018-01-22T17:14:07.386Z,11.48
2018-01-22T17:16:36.237Z,12.60
2018-01-22T17:19:04.307Z,11.85
2018-01-22T17:21:32.379Z,12.25
2018-01-22T17:24:00.441Z,12.95
2018-01-22T17:26:28.539Z,12.88
2018-01-22T17:28:56.593Z,12.95
2018-01-22T17:31:24.661Z,12.63
2018-01-22T17:33:53.012Z,12.90
2018-01-22T17:36:21.077Z,14.93
2018-01-22T17:38:49.175Z,13.27
2018-01-22T17:41:17.226Z,14.73
2018-01-22T17:43:45.306Z,14.93
2018-01-22T17:46:13.375Z,13.07
2018-01-22T17:48:41.442Z,14.50
2018-01-22T17:51:09.506Z,13.62
2018-01-22T17:53:37.569Z,14.02
2018-01-22T17:56:05.672Z,14.70
2018-01-22T17:58:33.767Z,14.23
2018-01-22T18:01:01.843Z,13.90
2018-01-22T18:03:29.923Z,14.48
2018-01-22T18:05:57.982Z,14.82
2018-01-22T18:08:26.050Z,15.07
2018-01-22T18:10:54.117Z,14.70
2018-01-22T18:13:22.181Z,15.80
2018-01-22T18:15:50.259Z,15.65
2018-01-22T18:18:18.334Z,15.68
2018-01-22T18:20:46.399Z,14.02
2018-01-22T18:23:14.493Z,14.52
2018-01-22T18:25:43.343Z,14.73
2018-01-22T18:28:11.410Z,15.63
2018-01-22T18:30:39.481Z,14.77
2018-01-22T18:33:07.587Z,14.50
2018-01-22T18:35:35.644Z,15.38
2018-01-22T18:38:03.723Z,15.32
2018-01-22T18:40:32.561Z,14.23
2018-01-22T18:43:00.634Z,14.75
2018-01-22T18:45:28.703Z,17.20
2018-01-22T18:47:56.775Z,14.10
2018-01-22T18:50:24.843Z,15.18
2018-01-22T18:52:52.927Z,16.42
2018-01-22T18:55:20.999Z,16.90
2018-01-22T18:57:49.067Z,17.02
2018-01-22T19:00:17.130Z,12.60
2018-01-22T19:02:45.202Z,14.70
2018-01-22T19:05:13.277Z,16.52
2018-01-22T19:07:41.340Z,15.30
2018-01-22T19:10:09.402Z,16.70
2018-01-22T19:12:37.472Z,17.35
2018-01-22T19:15:05.533Z,15.50
2018-01-22T19:17:33.653Z,15.70
2018-01-22T19:20:01.717Z,15.93
2018-01-22T19:22:29.785Z,17.02
2018-01-22T19:24:57.853Z,19.55
2018-01-22T19:27:25.918Z,17.98
2018-01-22T19:29:54.000Z,17.40
2018-01-22T19:32:22.071Z,15.85
2018-01-22T19:34:50.142Z,16.20
2018-01-22T19:37:18.211Z,16.75
2018-01-22T19:39:46.287Z,19.35
2018-01-22T19:42:14.357Z,18.50
2018-01-22T19:44:42.439Z,18.45
2018-01-22T19:47:10.502Z,18.48
2018-01-22T19:49:38.567Z,19.37
2018-01-22T19:52:06.640Z,18.35
2018-01-22T19:54:34.706Z,20.02
2018-01-22T19:57:02.781Z,20.52
2018-01-22T19:59:30.854Z,19.33
2018-01-22T20:01:58.914Z,17.23
2018-01-22T20:04:26.981Z,20.02
2018-01-22T20:06:55.045Z,16.42
2018-01-22T20:09:23.106Z,18.85
2018-01-22T20:11:51.163Z,19.00
2018-01-22T20:14:19.239Z,16.98
2018-01-22T20:16:47.352Z,16.42
2018-01-22T20:19:15.425Z,15.80
2018-01-22T20:21:43.869Z,17.67
2018-01-22T20:24:11.941Z,18.00
2018-01-22T20:26:40.006Z,16.58
2018-01-22T20:29:08.084Z,16.23
2018-01-22T20:31:36.137Z,16.92
2018-01-22T20:34:04.212Z,16.60
2018-01-22T20:36:32.324Z,15.32
2018-01-22T20:39:00.396Z,15.30
2018-01-22T20:41:28.453Z,14.25
2018-01-22T20:43:56.520Z,16.80
2018-01-22T20:46:24.590Z,15.23
2018-01-22T20:48:52.659Z,14.93
2018-01-22T20:51:20.725Z,14.55
2018-01-22T20:53:48.804Z,16.65
2018-01-22T20:56:16.886Z,15.80
2018-01-22T20:58:44.992Z,13.75
2018-01-22T21:01:13.822Z,15.02
2018-01-22T21:03:41.896Z,14.95
2018-01-22T21:06:09.958Z,16.15
2018-01-22T21:08:38.032Z,16.48
2018-01-22T21:11:06.099Z,16.45
2018-01-22T21:13:34.182Z,13.95
2018-01-22T21:16:02.255Z,15.70
2018-01-22T21:18:30.330Z,15.95
2018-01-22T21:20:58.395Z,15.38
2018-01-22T21:23:26.479Z,14.93
2018-01-22T21:25:54.553Z,16.12
2018-01-22T21:28:22.635Z,16.48
2018-01-22T21:30:50.701Z,16.50
2018-01-22T21:33:18.778Z,15.70
2018-01-22T21:35:47.621Z,15.55
2018-01-22T21:38:15.685Z,16.25
2018-01-22T21:40:43.770Z,16.73
2018-01-22T21:43:11.858Z,16.70
2018-01-22T21:45:39.918Z,14.68
2018-01-22T21:48:08.040Z,16.35
2018-01-22T21:50:36.893Z,15.73
2018-01-22T21:53:04.965Z,17.12
2018-01-22T21:55:33.049Z,16.17
2018-01-22T21:58:02.826Z,15.75
2018-01-22T22:00:30.897Z,17.95
2018-01-22T22:02:58.966Z,16.80
2018-01-22T22:05:27.061Z,17.90
2018-01-22T22:07:55.134Z,17.00
2018-01-22T22:10:23.205Z,15.10
2018-01-22T22:12:51.286Z,16.65
2018-01-22T22:15:19.362Z,15.85
2018-01-22T22:17:48.191Z,16.98
2018-01-22T22:20:16.258Z,16.80
2018-01-22T22:22:44.343Z,20.75
2018-01-22T22:25:12.406Z,17.35
2018-01-22T22:27:40.482Z,16.00
2018-01-22T22:30:08.555Z,16.40
2018-01-22T22:32:36.623Z,17.45
2018-01-22T22:35:04.706Z,16.52
2018-01-22T22:37:32.779Z,17.00
2018-01-22T22:40:00.842Z,16.40
2018-01-22T22:42:28.916Z,16.80
2018-01-22T22:44:56.977Z,16.70
2018-01-22T22:47:25.048Z,16.20
2018-01-22T22:49:53.151Z,16.45
2018-01-22T22:52:21.223Z,16.12
2018-01-22T22:54:49.293Z,18.15
2018-01-22T22:57:17.403Z,16.65
2018-01-22T22:59:45.468Z,15.98
2018-01-22T23:02:13.539Z,16.52
2018-01-22T23:04:41.614Z,16.98
2018-01-22T23:07:09.680Z,17.12
2018-01-22T23:09:37.745Z,17.12
2018-01-22T23:12:05.829Z,17.92
2018-01-22T23:14:33.923Z,19.55
2018-01-22T23:17:01.992Z,19.75
2018-01-22T23:19:30.059Z,18.55
2018-01-22T23:21:58.158Z,19.15
2018-01-22T23:24:26.218Z,18.15
2018-01-22T23:26:54.289Z,18.62
2018-01-22T23:29:22.363Z,19.23
2018-01-22T23:31:50.434Z,18.55
2018-01-22T23:34:18.506Z,19.20
2018-01-22T23:36:46.572Z,19.70
2018-01-22T23:39:14.637Z,18.33
2018-01-22T23:41:42.703Z,18.73
2018-01-22T23:44:10.779Z,20.42
2018-01-22T23:46:38.845Z,19.70
2018-01-22T23:49:06.910Z,18.95
2018-01-22T23:51:34.985Z,19.27
2018-01-22T23:54:03.063Z,19.33
2018-01-22T23:56:31.150Z,19.62
2018-01-22T23:58:59.225Z,20.75
